sensor_id;sensor_type;location;lat;lon;timestamp;pressure;altitude;pressure_sealevel;temperature;humidity
67038;BME280;53940;53.204;6.590;2023-12-22T00:00:51;99541.66;;;21.73;41.29
67038;BME280;53940;53.204;6.590;2023-12-22T00:03:52;99557.72;;;21.73;41.10
67038;BME280;53940;53.204;6.590;2023-12-22T00:06:52;99543.31;;;21.74;41.23
67038;BME280;53940;53.204;6.590;2023-12-22T00:09:52;99531.75;;;21.73;41.05
67038;BME280;53940;53.204;6.590;2023-12-22T00:12:53;99532.59;;;21.74;41.28
67038;BME280;53940;53.204;6.590;2023-12-22T00:15:53;99555.88;;;21.73;41.22
67038;BME280;53940;53.204;6.590;2023-12-22T00:18:53;99590.72;;;21.73;41.14
67038;BME280;53940;53.204;6.590;2023-12-22T00:21:55;99576.50;;;21.73;40.97
67038;BME280;53940;53.204;6.590;2023-12-22T00:24:55;99572.81;;;21.74;41.16
67038;BME280;53940;53.204;6.590;2023-12-22T00:27:55;99559.41;;;21.74;41.24
67038;BME280;53940;53.204;6.590;2023-12-22T00:30:56;99573.66;;;21.74;41.22
67038;BME280;53940;53.204;6.590;2023-12-22T00:33:56;99572.81;;;21.74;41.19
67038;BME280;53940;53.204;6.590;2023-12-22T00:36:56;99563.09;;;21.73;41.00
67038;BME280;53940;53.204;6.590;2023-12-22T00:39:57;99584.72;;;21.71;40.78
67038;BME280;53940;53.204;6.590;2023-12-22T00:42:57;99613.41;;;21.71;40.58
67038;BME280;53940;53.204;6.590;2023-12-22T00:45:57;99568.81;;;21.70;40.57
67038;BME280;53940;53.204;6.590;2023-12-22T00:48:58;99577.81;;;21.68;40.67
67038;BME280;53940;53.204;6.590;2023-12-22T00:51:58;99597.63;;;21.67;40.30
67038;BME280;53940;53.204;6.590;2023-12-22T00:54:58;99592.25;;;21.67;40.33
67038;BME280;53940;53.204;6.590;2023-12-22T00:57:59;99595.94;;;21.66;40.21
67038;BME280;53940;53.204;6.590;2023-12-22T01:00:59;99582.72;;;21.65;40.08
67038;BME280;53940;53.204;6.590;2023-12-22T01:03:59;99589.94;;;21.64;40.08
67038;BME280;53940;53.204;6.590;2023-12-22T01:07:00;99598.16;;;21.63;39.76
67038;BME280;53940;53.204;6.590;2023-12-22T01:10:00;99597.31;;;21.62;39.82
67038;BME280;53940;53.204;6.590;2023-12-22T01:13:02;99596.28;;;21.63;39.58
67038;BME280;53940;53.204;6.590;2023-12-22T01:16:02;99592.78;;;21.63;39.59
67038;BME280;53940;53.204;6.590;2023-12-22T01:19:02;99595.47;;;21.63;39.61
67038;BME280;53940;53.204;6.590;2023-12-22T01:22:03;99596.28;;;21.63;39.18
67038;BME280;53940;53.204;6.590;2023-12-22T01:25:04;99600.66;;;21.64;39.02
67038;BME280;53940;53.204;6.590;2023-12-22T01:28:05;99615.72;;;21.65;39.24
67038;BME280;53940;53.204;6.590;2023-12-22T01:31:05;99605.00;;;21.65;38.98
67038;BME280;53940;53.204;6.590;2023-12-22T01:34:06;99620.06;;;21.66;39.20
67038;BME280;53940;53.204;6.590;2023-12-22T01:37:06;99620.72;;;21.68;39.14
67038;BME280;53940;53.204;6.590;2023-12-22T01:40:07;99631.44;;;21.68;39.03
67038;BME280;53940;53.204;6.590;2023-12-22T01:43:07;99620.41;;;21.72;38.86
67038;BME280;53940;53.204;6.590;2023-12-22T01:46:09;99622.09;;;21.73;39.06
67038;BME280;53940;53.204;6.590;2023-12-22T01:49:10;99629.97;;;21.74;39.01
67038;BME280;53940;53.204;6.590;2023-12-22T01:52:11;99643.16;;;21.76;38.77
67038;BME280;53940;53.204;6.590;2023-12-22T01:55:13;99634.16;;;21.77;38.69
67038;BME280;53940;53.204;6.590;2023-12-22T01:58:14;99637.47;;;21.79;38.42
67038;BME280;53940;53.204;6.590;2023-12-22T02:01:14;99635.44;;;21.81;38.61
67038;BME280;53940;53.204;6.590;2023-12-22T02:04:15;99621.00;;;21.82;38.39
67038;BME280;53940;53.204;6.590;2023-12-22T02:07:16;99634.25;;;21.84;38.13
67038;BME280;53940;53.204;6.590;2023-12-22T02:10:16;99628.72;;;21.85;38.36
67038;BME280;53940;53.204;6.590;2023-12-22T02:13:17;99640.09;;;21.87;38.12
67038;BME280;53940;53.204;6.590;2023-12-22T02:16:31;99642.44;;;21.90;37.86
67038;BME280;53940;53.204;6.590;2023-12-22T02:19:43;99662.72;;;21.93;37.66
67038;BME280;53940;53.204;6.590;2023-12-22T02:22:44;99648.13;;;21.96;37.94
67038;BME280;53940;53.204;6.590;2023-12-22T02:25:44;99641.56;;;21.98;37.76
67038;BME280;53940;53.204;6.590;2023-12-22T02:28:45;99649.41;;;22.00;37.94
67038;BME280;53940;53.204;6.590;2023-12-22T02:31:48;99635.66;;;22.03;37.62
67038;BME280;53940;53.204;6.590;2023-12-22T02:34:52;99637.16;;;22.05;37.47
67038;BME280;53940;53.204;6.590;2023-12-22T02:37:56;99635.97;;;22.08;37.48
67038;BME280;53940;53.204;6.590;2023-12-22T02:40:58;99630.41;;;22.10;37.58
67038;BME280;53940;53.204;6.590;2023-12-22T02:43:59;99627.38;;;22.13;37.62
67038;BME280;53940;53.204;6.590;2023-12-22T02:47:00;99630.69;;;22.15;37.51
67038;BME280;53940;53.204;6.590;2023-12-22T02:50:00;99609.72;;;22.18;37.33
67038;BME280;53940;53.204;6.590;2023-12-22T02:53:00;99615.75;;;22.20;37.19
67038;BME280;53940;53.204;6.590;2023-12-22T02:56:01;99609.00;;;22.25;37.24
67038;BME280;53940;53.204;6.590;2023-12-22T02:59:02;99608.66;;;22.28;37.19
67038;BME280;53940;53.204;6.590;2023-12-22T03:02:03;99666.50;;;22.30;37.16
67038;BME280;53940;53.204;6.590;2023-12-22T03:05:04;99668.00;;;22.33;37.25
67038;BME280;53940;53.204;6.590;2023-12-22T03:08:05;99632.72;;;22.36;36.84
67038;BME280;53940;53.204;6.590;2023-12-22T03:11:05;99636.06;;;22.38;37.12
67038;BME280;53940;53.204;6.590;2023-12-22T03:14:05;99622.28;;;22.41;36.92
67038;BME280;53940;53.204;6.590;2023-12-22T03:17:06;99612.19;;;22.43;36.82
67038;BME280;53940;53.204;6.590;2023-12-22T03:20:07;99615.56;;;22.45;36.60
67038;BME280;53940;53.204;6.590;2023-12-22T03:23:07;99606.09;;;22.49;36.76
67038;BME280;53940;53.204;6.590;2023-12-22T03:26:07;99626.41;;;22.52;36.71
67038;BME280;53940;53.204;6.590;2023-12-22T03:29:08;99627.72;;;22.56;36.48
67038;BME280;53940;53.204;6.590;2023-12-22T03:32:08;99631.91;;;22.59;36.44
67038;BME280;53940;53.204;6.590;2023-12-22T03:35:09;99635.91;;;22.63;36.45
67038;BME280;53940;53.204;6.590;2023-12-22T03:38:09;99631.19;;;22.65;36.45
67038;BME280;53940;53.204;6.590;2023-12-22T03:41:09;99636.16;;;22.68;36.39
67038;BME280;53940;53.204;6.590;2023-12-22T03:44:10;99630.44;;;22.71;36.23
67038;BME280;53940;53.204;6.590;2023-12-22T03:47:10;99634.63;;;22.74;36.43
67038;BME280;53940;53.204;6.590;2023-12-22T03:50:11;99644.16;;;22.77;36.34
67038;BME280;53940;53.204;6.590;2023-12-22T03:53:11;99640.09;;;22.81;36.23
67038;BME280;53940;53.204;6.590;2023-12-22T03:56:11;99640.75;;;22.83;36.02
67038;BME280;53940;53.204;6.590;2023-12-22T03:59:12;99612.88;;;22.84;36.04
67038;BME280;53940;53.204;6.590;2023-12-22T04:02:13;99624.94;;;22.88;35.82
67038;BME280;53940;53.204;6.590;2023-12-22T04:05:13;99639.81;;;22.91;35.87
67038;BME280;53940;53.204;6.590;2023-12-22T04:08:14;99642.31;;;22.92;36.04
67038;BME280;53940;53.204;6.590;2023-12-22T04:11:14;99649.38;;;22.93;35.90
67038;BME280;53940;53.204;6.590;2023-12-22T04:14:14;99666.16;;;22.95;35.75
67038;BME280;53940;53.204;6.590;2023-12-22T04:17:15;99654.38;;;22.96;35.76
67038;BME280;53940;53.204;6.590;2023-12-22T04:20:15;99648.00;;;22.97;35.74
67038;BME280;53940;53.204;6.590;2023-12-22T04:23:16;99659.38;;;22.99;35.71
67038;BME280;53940;53.204;6.590;2023-12-22T04:26:16;99670.97;;;23.00;35.75
67038;BME280;53940;53.204;6.590;2023-12-22T04:29:16;99670.78;;;23.01;35.60
67038;BME280;53940;53.204;6.590;2023-12-22T04:32:17;99664.41;;;23.02;35.74
67038;BME280;53940;53.204;6.590;2023-12-22T04:35:17;99667.72;;;23.05;35.73
67038;BME280;53940;53.204;6.590;2023-12-22T04:38:17;99662.34;;;23.05;35.63
67038;BME280;53940;53.204;6.590;2023-12-22T04:41:18;99660.34;;;23.07;35.63
67038;BME280;53940;53.204;6.590;2023-12-22T04:44:18;99666.53;;;23.07;35.65
67038;BME280;53940;53.204;6.590;2023-12-22T04:47:18;99678.13;;;23.08;35.79
67038;BME280;53940;53.204;6.590;2023-12-22T04:50:19;99679.78;;;23.09;35.56
67038;BME280;53940;53.204;6.590;2023-12-22T04:53:19;99681.44;;;23.10;35.75
67038;BME280;53940;53.204;6.590;2023-12-22T04:56:20;99676.06;;;23.10;35.73
67038;BME280;53940;53.204;6.590;2023-12-22T04:59:20;99683.09;;;23.11;35.77
67038;BME280;53940;53.204;6.590;2023-12-22T05:02:21;99683.09;;;23.11;35.84
67038;BME280;53940;53.204;6.590;2023-12-22T05:05:21;99683.09;;;23.11;35.75
67038;BME280;53940;53.204;6.590;2023-12-22T05:08:21;99677.75;;;23.11;35.77
67038;BME280;53940;53.204;6.590;2023-12-22T05:11:22;99677.75;;;23.11;35.50
67038;BME280;53940;53.204;6.590;2023-12-22T05:14:22;99700.09;;;23.11;35.69
67038;BME280;53940;53.204;6.590;2023-12-22T05:17:23;99700.09;;;23.11;35.68
67038;BME280;53940;53.204;6.590;2023-12-22T05:20:23;99692.84;;;23.12;35.77
67038;BME280;53940;53.204;6.590;2023-12-22T05:23:23;99694.72;;;23.11;35.91
67038;BME280;53940;53.204;6.590;2023-12-22T05:26:24;99717.03;;;23.12;35.83
67038;BME280;53940;53.204;6.590;2023-12-22T05:29:25;99700.09;;;23.11;35.75
67038;BME280;53940;53.204;6.590;2023-12-22T05:32:25;99699.22;;;23.11;35.97
67038;BME280;53940;53.204;6.590;2023-12-22T05:35:25;99707.28;;;23.11;35.78
67038;BME280;53940;53.204;6.590;2023-12-22T05:38:26;99709.97;;;23.11;35.77
67038;BME280;53940;53.204;6.590;2023-12-22T05:41:26;99716.38;;;23.10;35.86
67038;BME280;53940;53.204;6.590;2023-12-22T05:44:27;99706.47;;;23.10;35.90
67038;BME280;53940;53.204;6.590;2023-12-22T05:47:30;99715.34;;;23.11;35.75
67038;BME280;53940;53.204;6.590;2023-12-22T05:50:30;99736.03;;;23.10;35.95
67038;BME280;53940;53.204;6.590;2023-12-22T05:53:31;99725.09;;;23.12;36.04
67038;BME280;53940;53.204;6.590;2023-12-22T05:56:31;99712.66;;;23.11;36.02
67038;BME280;53940;53.204;6.590;2023-12-22T05:59:33;99716.38;;;23.10;36.05
67038;BME280;53940;53.204;6.590;2023-12-22T06:02:34;99723.59;;;23.09;35.86
67038;BME280;53940;53.204;6.590;2023-12-22T06:05:34;99720.91;;;23.09;35.85
67038;BME280;53940;53.204;6.590;2023-12-22T06:08:35;99715.75;;;23.08;35.91
67038;BME280;53940;53.204;6.590;2023-12-22T06:11:35;99728.16;;;23.09;36.04
67038;BME280;53940;53.204;6.590;2023-12-22T06:14:35;99731.84;;;23.08;35.91
67038;BME280;53940;53.204;6.590;2023-12-22T06:17:36;99750.66;;;23.08;35.99
67038;BME280;53940;53.204;6.590;2023-12-22T06:20:36;99747.13;;;23.07;35.87
67038;BME280;53940;53.204;6.590;2023-12-22T06:23:37;99737.41;;;23.06;36.00
67038;BME280;53940;53.204;6.590;2023-12-22T06:26:37;99737.41;;;23.06;36.01
67038;BME280;53940;53.204;6.590;2023-12-22T06:29:38;99732.22;;;23.05;36.01
67038;BME280;53940;53.204;6.590;2023-12-22T06:32:38;99732.22;;;23.05;36.20
67038;BME280;53940;53.204;6.590;2023-12-22T06:35:41;99735.06;;;23.03;36.09
67038;BME280;53940;53.204;6.590;2023-12-22T06:38:41;99733.41;;;23.02;36.21
67038;BME280;53940;53.204;6.590;2023-12-22T06:41:42;99747.69;;;23.02;36.11
67038;BME280;53940;53.204;6.590;2023-12-22T06:44:42;99752.22;;;23.02;36.15
67038;BME280;53940;53.204;6.590;2023-12-22T06:47:43;99772.91;;;23.01;36.02
67038;BME280;53940;53.204;6.590;2023-12-22T06:50:44;99764.84;;;23.01;35.93
67038;BME280;53940;53.204;6.590;2023-12-22T06:53:46;99763.16;;;23.00;36.18
67038;BME280;53940;53.204;6.590;2023-12-22T06:56:46;99751.41;;;23.01;36.05
67038;BME280;53940;53.204;6.590;2023-12-22T06:59:46;99748.03;;;22.99;36.24
67038;BME280;53940;53.204;6.590;2023-12-22T07:02:49;99750.72;;;22.99;36.17
67038;BME280;53940;53.204;6.590;2023-12-22T07:05:49;99746.19;;;23.00;36.05
67038;BME280;53940;53.204;6.590;2023-12-22T07:09:27;99736.31;;;23.00;35.88
67038;BME280;53940;53.204;6.590;2023-12-22T07:12:17;99746.19;;;23.00;36.09
67038;BME280;53940;53.204;6.590;2023-12-22T07:15:18;99757.13;;;22.98;36.28
67038;BME280;53940;53.204;6.590;2023-12-22T07:18:18;99770.56;;;22.98;36.12
67038;BME280;53940;53.204;6.590;2023-12-22T07:21:18;99768.88;;;22.97;36.19
67038;BME280;53940;53.204;6.590;2023-12-22T07:24:19;99779.63;;;22.97;36.11
67038;BME280;53940;53.204;6.590;2023-12-22T07:27:20;99773.41;;;22.97;36.06
67038;BME280;53940;53.204;6.590;2023-12-22T07:30:20;99777.97;;;22.96;36.06
67038;BME280;53940;53.204;6.590;2023-12-22T07:33:20;99788.72;;;22.96;36.25
67038;BME280;53940;53.204;6.590;2023-12-22T07:36:21;99805.00;;;22.95;36.31
67038;BME280;53940;53.204;6.590;2023-12-22T07:39:24;99803.16;;;22.95;36.17
67038;BME280;53940;53.204;6.590;2023-12-22T07:42:24;99819.28;;;22.95;36.42
67038;BME280;53940;53.204;6.590;2023-12-22T07:45:24;99809.56;;;22.94;36.27
67038;BME280;53940;53.204;6.590;2023-12-22T07:48:25;99810.56;;;22.93;36.42
67038;BME280;53940;53.204;6.590;2023-12-22T07:51:25;99811.56;;;22.92;36.31
67038;BME280;53940;53.204;6.590;2023-12-22T07:54:26;99808.88;;;22.92;36.43
67038;BME280;53940;53.204;6.590;2023-12-22T07:57:26;99800.19;;;22.90;36.51
67038;BME280;53940;53.204;6.590;2023-12-22T08:00:26;99790.47;;;22.89;36.55
67038;BME280;53940;53.204;6.590;2023-12-22T08:03:28;99788.59;;;22.89;36.46
67038;BME280;53940;53.204;6.590;2023-12-22T08:06:28;99781.38;;;22.90;36.78
67038;BME280;53940;53.204;6.590;2023-12-22T08:09:28;99785.72;;;22.91;36.54
67038;BME280;53940;53.204;6.590;2023-12-22T08:12:29;99791.09;;;22.91;36.74
67038;BME280;53940;53.204;6.590;2023-12-22T08:15:29;99782.88;;;22.93;36.77
67038;BME280;53940;53.204;6.590;2023-12-22T08:18:29;99786.56;;;22.92;36.77
67038;BME280;53940;53.204;6.590;2023-12-22T08:21:30;99803.50;;;22.92;36.83
67038;BME280;53940;53.204;6.590;2023-12-22T08:24:30;99798.13;;;22.92;36.74
67038;BME280;53940;53.204;6.590;2023-12-22T08:27:31;99777.50;;;22.93;36.89
67038;BME280;53940;53.204;6.590;2023-12-22T08:30:32;99783.69;;;22.93;36.94
67038;BME280;53940;53.204;6.590;2023-12-22T08:33:33;99780.81;;;22.95;36.78
67038;BME280;53940;53.204;6.590;2023-12-22T08:36:34;99791.56;;;22.95;36.80
67038;BME280;53940;53.204;6.590;2023-12-22T08:39:34;99783.50;;;22.95;36.74
67038;BME280;53940;53.204;6.590;2023-12-22T08:42:34;99796.78;;;22.96;36.89
67038;BME280;53940;53.204;6.590;2023-12-22T08:45:35;99792.41;;;22.95;36.78
67038;BME280;53940;53.204;6.590;2023-12-22T08:48:35;99797.78;;;22.95;37.00
67038;BME280;53940;53.204;6.590;2023-12-22T08:51:36;99796.78;;;22.96;36.82
67038;BME280;53940;53.204;6.590;2023-12-22T08:54:36;99787.03;;;22.95;36.81
67038;BME280;53940;53.204;6.590;2023-12-22T08:57:37;99774.63;;;22.94;36.85
67038;BME280;53940;53.204;6.590;2023-12-22T09:00:37;99760.91;;;22.89;36.92
67038;BME280;53940;53.204;6.590;2023-12-22T09:03:37;99764.97;;;22.85;36.88
67038;BME280;53940;53.204;6.590;2023-12-22T09:06:43;99765.97;;;22.84;36.90
67038;BME280;53940;53.204;6.590;2023-12-22T09:09:44;99768.03;;;22.82;37.00
67038;BME280;53940;53.204;6.590;2023-12-22T09:12:44;99762.81;;;22.80;37.03
67038;BME280;53940;53.204;6.590;2023-12-22T09:15:44;99754.09;;;22.78;36.97
67038;BME280;53940;53.204;6.590;2023-12-22T09:18:48;99766.06;;;22.75;36.84
67038;BME280;53940;53.204;6.590;2023-12-22T09:21:49;99756.28;;;22.74;36.98
67038;BME280;53940;53.204;6.590;2023-12-22T09:24:50;99763.72;;;22.72;36.99
67038;BME280;53940;53.204;6.590;2023-12-22T09:27:50;99774.44;;;22.72;37.07
67038;BME280;53940;53.204;6.590;2023-12-22T09:30:50;99772.97;;;22.70;37.06
67038;BME280;53940;53.204;6.590;2023-12-22T09:33:51;99776.50;;;22.70;37.26
67038;BME280;53940;53.204;6.590;2023-12-22T09:36:51;99778.50;;;22.68;37.11
67038;BME280;53940;53.204;6.590;2023-12-22T09:39:52;99766.09;;;22.67;37.08
67038;BME280;53940;53.204;6.590;2023-12-22T09:42:54;99767.13;;;22.66;37.10
67038;BME280;53940;53.204;6.590;2023-12-22T09:45:55;99780.53;;;22.66;37.20
67038;BME280;53940;53.204;6.590;2023-12-22T09:48:56;99774.53;;;22.64;37.38
67038;BME280;53940;53.204;6.590;2023-12-22T09:51:57;99775.53;;;22.63;37.43
67038;BME280;53940;53.204;6.590;2023-12-22T09:54:58;99761.25;;;22.63;37.36
67038;BME280;53940;53.204;6.590;2023-12-22T09:58:01;99757.94;;;22.60;37.19
67038;BME280;53940;53.204;6.590;2023-12-22T10:01:02;99763.31;;;22.60;37.46
67038;BME280;53940;53.204;6.590;2023-12-22T10:04:05;99777.72;;;22.59;37.44
67038;BME280;53940;53.204;6.590;2023-12-22T10:07:06;99774.22;;;22.59;37.26
67038;BME280;53940;53.204;6.590;2023-12-22T10:10:09;99775.88;;;22.60;37.25
67038;BME280;53940;53.204;6.590;2023-12-22T10:13:09;99783.94;;;22.60;37.29
67038;BME280;53940;53.204;6.590;2023-12-22T10:16:10;99786.63;;;22.60;37.31
67038;BME280;53940;53.204;6.590;2023-12-22T10:19:10;99787.63;;;22.59;37.23
67038;BME280;53940;53.204;6.590;2023-12-22T10:22:11;99784.28;;;22.57;37.51
67038;BME280;53940;53.204;6.590;2023-12-22T10:25:15;99780.94;;;22.55;37.35
67038;BME280;53940;53.204;6.590;2023-12-22T10:28:18;99775.94;;;22.52;37.35
67038;BME280;53940;53.204;6.590;2023-12-22T10:31:22;99779.59;;;22.51;37.50
67038;BME280;53940;53.204;6.590;2023-12-22T10:34:22;99788.66;;;22.49;37.42
67038;BME280;53940;53.204;6.590;2023-12-22T10:37:23;99778.94;;;22.48;37.24
67038;BME280;53940;53.204;6.590;2023-12-22T10:40:23;99772.75;;;22.48;37.60
67038;BME280;53940;53.204;6.590;2023-12-22T10:43:24;99757.63;;;22.47;37.24
67038;BME280;53940;53.204;6.590;2023-12-22T10:46:25;99766.69;;;22.46;37.36
67038;BME280;53940;53.204;6.590;2023-12-22T10:49:25;99754.28;;;22.45;37.32
67038;BME280;53940;53.204;6.590;2023-12-22T10:52:25;99742.72;;;22.44;37.33
67038;BME280;53940;53.204;6.590;2023-12-22T10:55:26;99742.91;;;22.43;37.45
67038;BME280;53940;53.204;6.590;2023-12-22T10:58:28;99743.09;;;22.41;37.47
67038;BME280;53940;53.204;6.590;2023-12-22T11:01:29;99759.19;;;22.41;37.54
67038;BME280;53940;53.204;6.590;2023-12-22T11:04:30;99772.63;;;22.41;37.56
67038;BME280;53940;53.204;6.590;2023-12-22T11:07:35;99764.72;;;22.40;37.28
67038;BME280;53940;53.204;6.590;2023-12-22T11:10:42;99766.59;;;22.39;37.55
67038;BME280;53940;53.204;6.590;2023-12-22T11:13:43;99763.91;;;22.39;37.43
67038;BME280;53940;53.204;6.590;2023-12-22T11:16:44;99767.59;;;22.38;37.48
67038;BME280;53940;53.204;6.590;2023-12-22T11:19:49;99753.34;;;22.38;37.64
67038;BME280;53940;53.204;6.590;2023-12-22T11:22:51;99765.91;;;22.37;37.73
67038;BME280;53940;53.204;6.590;2023-12-22T11:25:52;99759.91;;;22.35;37.41
67038;BME280;53940;53.204;6.590;2023-12-22T11:28:54;99757.38;;;22.33;37.57
67038;BME280;53940;53.204;6.590;2023-12-22T11:31:56;99745.81;;;22.33;37.72
67038;BME280;53940;53.204;6.590;2023-12-22T11:34:59;99751.19;;;22.33;37.42
67038;BME280;53940;53.204;6.590;2023-12-22T11:38:01;99763.94;;;22.31;37.65
67038;BME280;53940;53.204;6.590;2023-12-22T11:41:03;99739.78;;;22.31;37.72
67038;BME280;53940;53.204;6.590;2023-12-22T11:44:05;99737.09;;;22.31;37.59
67038;BME280;53940;53.204;6.590;2023-12-22T11:47:07;99731.72;;;22.31;37.72
67038;BME280;53940;53.204;6.590;2023-12-22T11:50:09;99741.81;;;22.29;37.49
67038;BME280;53940;53.204;6.590;2023-12-22T11:53:18;99726.72;;;22.28;37.68
67038;BME280;53940;53.204;6.590;2023-12-22T11:56:18;99717.00;;;22.27;37.42
67038;BME280;53940;53.204;6.590;2023-12-22T11:59:20;99723.38;;;22.26;37.63
67038;BME280;53940;53.204;6.590;2023-12-22T12:02:21;99718.00;;;22.26;37.44
67038;BME280;53940;53.204;6.590;2023-12-22T12:05:22;99711.81;;;22.25;37.36
67038;BME280;53940;53.204;6.590;2023-12-22T12:08:29;99705.59;;;22.25;37.44
67038;BME280;53940;53.204;6.590;2023-12-22T12:18:08;99693.38;;;22.22;37.71
67038;BME280;53940;53.204;6.590;2023-12-22T12:21:10;99688.22;;;22.20;37.53
67038;BME280;53940;53.204;6.590;2023-12-22T12:24:11;99675.78;;;22.19;37.58
67038;BME280;53940;53.204;6.590;2023-12-22T12:27:17;99681.16;;;22.19;37.73
67038;BME280;53940;53.204;6.590;2023-12-22T12:30:18;99674.09;;;22.18;37.60
67038;BME280;53940;53.204;6.590;2023-12-22T12:33:18;99677.81;;;22.17;37.69
67038;BME280;53940;53.204;6.590;2023-12-22T12:36:19;99664.41;;;22.17;37.65
67038;BME280;53940;53.204;6.590;2023-12-22T12:39:22;99662.72;;;22.16;37.68
67038;BME280;53940;53.204;6.590;2023-12-22T12:42:22;99663.56;;;22.17;37.73
67038;BME280;53940;53.204;6.590;2023-12-22T12:45:23;99649.31;;;22.16;37.80
67038;BME280;53940;53.204;6.590;2023-12-22T12:48:24;99665.41;;;22.16;37.82
67038;BME280;53940;53.204;6.590;2023-12-22T12:51:24;99673.81;;;22.13;37.58
67038;BME280;53940;53.204;6.590;2023-12-22T12:54:25;99671.13;;;22.13;37.49
67038;BME280;53940;53.204;6.590;2023-12-22T12:57:26;99663.06;;;22.13;37.48
67038;BME280;53940;53.204;6.590;2023-12-22T13:00:33;99673.16;;;22.11;37.82
67038;BME280;53940;53.204;6.590;2023-12-22T13:03:55;99662.44;;;22.11;37.93
67038;BME280;53940;53.204;6.590;2023-12-22T13:06:56;99649.84;;;22.12;37.70
67038;BME280;53940;53.204;6.590;2023-12-22T13:09:59;99649.66;;;22.13;37.83
67038;BME280;53940;53.204;6.590;2023-12-22T13:12:59;99655.69;;;22.15;37.94
67038;BME280;53940;53.204;6.590;2023-12-22T13:16:00;99663.38;;;22.18;37.82
67038;BME280;53940;53.204;6.590;2023-12-22T13:19:00;99656.00;;;22.20;38.34
67038;BME280;53940;53.204;6.590;2023-12-22T13:22:01;99659.97;;;22.25;38.37
67038;BME280;53940;53.204;6.590;2023-12-22T13:25:01;99659.63;;;22.28;38.95
67038;BME280;53940;53.204;6.590;2023-12-22T13:28:02;99664.00;;;22.29;38.85
67038;BME280;53940;53.204;6.590;2023-12-22T13:31:10;99663.13;;;22.28;39.36
67038;BME280;53940;53.204;6.590;2023-12-22T13:34:14;99665.66;;;22.30;39.01
67038;BME280;53940;53.204;6.590;2023-12-22T13:37:14;99681.75;;;22.30;39.12
67038;BME280;53940;53.204;6.590;2023-12-22T13:40:15;99661.78;;;22.32;38.97
67038;BME280;53940;53.204;6.590;2023-12-22T13:43:15;99677.72;;;22.34;38.89
67038;BME280;53940;53.204;6.590;2023-12-22T13:46:16;99686.78;;;22.33;39.13
67038;BME280;53940;53.204;6.590;2023-12-22T13:49:17;99683.72;;;22.36;39.13
67038;BME280;53940;53.204;6.590;2023-12-22T13:52:30;99679.38;;;22.35;39.23
67038;BME280;53940;53.204;6.590;2023-12-22T13:55:35;99681.41;;;22.33;39.06
67038;BME280;53940;53.204;6.590;2023-12-22T13:58:44;99667.69;;;22.28;39.27
67038;BME280;53940;53.204;6.590;2023-12-22T14:01:45;99670.72;;;22.25;39.02
67038;BME280;53940;53.204;6.590;2023-12-22T14:04:45;99669.22;;;22.22;39.39
67038;BME280;53940;53.204;6.590;2023-12-22T14:07:47;99660.69;;;22.18;39.32
67038;BME280;53940;53.204;6.590;2023-12-22T14:10:48;99679.47;;;22.18;39.07
67038;BME280;53940;53.204;6.590;2023-12-22T14:13:48;99697.63;;;22.16;39.20
67038;BME280;53940;53.204;6.590;2023-12-22T14:16:49;99702.97;;;22.16;39.33
67038;BME280;53940;53.204;6.590;2023-12-22T14:19:49;99683.56;;;22.14;39.30
67038;BME280;53940;53.204;6.590;2023-12-22T14:22:50;99683.56;;;22.14;39.14
67038;BME280;53940;53.204;6.590;2023-12-22T14:25:50;99693.59;;;22.12;39.26
67038;BME280;53940;53.204;6.590;2023-12-22T14:28:50;99680.19;;;22.12;39.22
67038;BME280;53940;53.204;6.590;2023-12-22T14:31:51;99680.19;;;22.12;39.07
67038;BME280;53940;53.204;6.590;2023-12-22T14:34:52;99662.44;;;22.11;39.17
67038;BME280;53940;53.204;6.590;2023-12-22T14:37:52;99635.59;;;22.11;39.28
67038;BME280;53940;53.204;6.590;2023-12-22T14:40:52;99642.16;;;22.08;38.90
67038;BME280;53940;53.204;6.590;2023-12-22T14:43:53;99650.38;;;22.07;38.96
67038;BME280;53940;53.204;6.590;2023-12-22T14:46:53;99660.09;;;22.08;39.24
67038;BME280;53940;53.204;6.590;2023-12-22T14:49:53;99654.06;;;22.06;39.02
67038;BME280;53940;53.204;6.590;2023-12-22T14:52:54;99655.25;;;22.03;39.18
67038;BME280;53940;53.204;6.590;2023-12-22T14:55:54;99649.06;;;22.03;39.03
67038;BME280;53940;53.204;6.590;2023-12-22T14:58:57;99642.03;;;22.02;38.99
67038;BME280;53940;53.204;6.590;2023-12-22T15:01:57;99651.06;;;22.01;39.04
67038;BME280;53940;53.204;6.590;2023-12-22T15:04:58;99649.41;;;22.00;39.23
67038;BME280;53940;53.204;6.590;2023-12-22T15:07:58;99656.81;;;21.98;39.24
67038;BME280;53940;53.204;6.590;2023-12-22T15:10:58;99657.81;;;21.97;39.23
67038;BME280;53940;53.204;6.590;2023-12-22T15:13:59;99666.03;;;21.95;39.21
67038;BME280;53940;53.204;6.590;2023-12-22T15:17:00;99662.50;;;21.94;39.04
67038;BME280;53940;53.204;6.590;2023-12-22T15:20:00;99661.88;;;21.92;39.05
67038;BME280;53940;53.204;6.590;2023-12-22T15:23:03;99662.88;;;21.91;39.31
67038;BME280;53940;53.204;6.590;2023-12-22T15:26:04;99665.56;;;21.91;39.14
67038;BME280;53940;53.204;6.590;2023-12-22T15:29:04;99680.81;;;21.91;38.89
67038;BME280;53940;53.204;6.590;2023-12-22T15:32:05;99676.47;;;21.90;39.14
67038;BME280;53940;53.204;6.590;2023-12-22T15:35:06;99674.78;;;21.89;39.22
67038;BME280;53940;53.204;6.590;2023-12-22T15:38:06;99700.59;;;21.90;39.04
67038;BME280;53940;53.204;6.590;2023-12-22T15:41:07;99719.38;;;21.90;39.01
67038;BME280;53940;53.204;6.590;2023-12-22T15:44:07;99733.63;;;21.90;39.13
67038;BME280;53940;53.204;6.590;2023-12-22T15:47:07;99748.88;;;21.90;39.26
67038;BME280;53940;53.204;6.590;2023-12-22T15:50:08;99751.56;;;21.90;39.26
67038;BME280;53940;53.204;6.590;2023-12-22T15:53:11;99761.28;;;21.91;39.18
67038;BME280;53940;53.204;6.590;2023-12-22T15:56:11;99754.91;;;21.92;39.29
67038;BME280;53940;53.204;6.590;2023-12-22T15:59:12;99743.34;;;21.91;39.37
67038;BME280;53940;53.204;6.590;2023-12-22T16:02:13;99723.91;;;21.89;39.33
67038;BME280;53940;53.204;6.590;2023-12-22T16:05:13;99714.84;;;21.90;39.31